Terminal Aerodrome Forecast
Issued by NWS Sioux Falls, SD

Home | Current Version | Previous Version | Graphics & Text | Print | Product List | Glossary On
Versions: 1 2 3 4 5 6 7 8 9 10 11 12 13 14
000
FTUS43 KFSD 011734
TAFHON
TAF
KHON 011734Z 0118/0218 12009KT P6SM SCT110 BKN250
     FM012000 15013KT P6SM SCT120 BKN200
     FM020100 13008KT P6SM FEW250
     FM021100 14006KT 5SM BR FEW003 SCT250
     FM021500 16009KT P6SM SKC=

USA.gov is the U.S. government's official web portal to all federal, state and local government web resources and services.